Kendallville, Iowa
Current Conditions -  °F | °C
As of 2:15 AM on Tuesday 27 Jan 2015 (Local Time) from KFKA Reporting Station
Overcast Overcast  
Wind Chill: -4°   Ceiling: 2400
Heat Index:   Visibility: 10mi
Dew Point: -2°   Wind: 9mph
Humidity: 86%   Direction: 30°NNE
Pressure: 30"   Gusts: NA
Location:  43.363°N, 92.1685°W
Report Text: KFKA 270815Z AUTO 03008KT 10SM SCT017 OVC024 01/M01 A3000 RMK AO2 T00061015
Loading
Personal Weather Stations






























Interactive Weather Map New forecast layout! Learn more

10-Day Weather Forecast

Advertisements
Track Severe Weather on mobile